createdAt,value
2023-02-19T00:00:01.385Z,99446.00
2023-02-19T00:01:38.802Z,99427.00
2023-02-19T00:03:12.808Z,99432.00
2023-02-19T00:04:46.173Z,99437.00
2023-02-19T00:06:22.743Z,99435.00
2023-02-19T00:07:56.223Z,99436.00
2023-02-19T00:09:30.047Z,99435.00
2023-02-19T00:11:05.436Z,99429.00
2023-02-19T00:12:38.486Z,99437.00
2023-02-19T00:14:17.500Z,99438.00
2023-02-19T00:15:49.557Z,99422.00
2023-02-19T00:17:22.717Z,99433.00
2023-02-19T00:18:58.046Z,99425.00
2023-02-19T00:20:31.134Z,99429.00
2023-02-19T00:22:05.496Z,99428.00
2023-02-19T00:23:38.119Z,99434.00
2023-02-19T00:25:11.185Z,99434.00
2023-02-19T00:26:46.373Z,99429.00
2023-02-19T00:28:18.532Z,99436.00
2023-02-19T00:29:52.365Z,99435.00
2023-02-19T00:31:29.907Z,99441.00
2023-02-19T00:33:04.096Z,99444.00
2023-02-19T00:34:37.577Z,99445.00
2023-02-19T00:36:10.876Z,99445.00
2023-02-19T00:37:45.720Z,99431.00
2023-02-19T00:39:18.928Z,99431.00
2023-02-19T00:40:52.236Z,99432.00
2023-02-19T00:42:26.043Z,99431.00
2023-02-19T00:44:01.856Z,99427.00
2023-02-19T00:45:35.650Z,99426.00
2023-02-19T00:47:08.780Z,99423.00
2023-02-19T00:48:45.459Z,99420.00
2023-02-19T00:50:18.689Z,99401.00
2023-02-19T00:51:53.601Z,99413.00
2023-02-19T00:53:28.033Z,99416.00
2023-02-19T00:55:01.258Z,99405.00
2023-02-19T00:56:35.387Z,99405.00
2023-02-19T00:58:08.720Z,99414.00
2023-02-19T00:59:41.727Z,99414.00
2023-02-19T01:01:15.469Z,99405.00
2023-02-19T01:02:48.512Z,99408.00
2023-02-19T01:04:21.615Z,99407.00
2023-02-19T01:05:55.934Z,99408.00
2023-02-19T01:07:29.327Z,99404.00
2023-02-19T01:09:05.281Z,99406.00
2023-02-19T01:10:37.541Z,99413.00
2023-02-19T01:12:10.696Z,99409.00
2023-02-19T01:13:44.813Z,99408.00
2023-02-19T01:15:20.464Z,99397.00
2023-02-19T01:16:53.695Z,99406.00
2023-02-19T01:18:25.852Z,99404.00
2023-02-19T01:19:59.050Z,99395.00
2023-02-19T01:21:33.340Z,99404.00
2023-02-19T01:23:06.479Z,99407.00
2023-02-19T01:24:41.084Z,99402.00
2023-02-19T01:26:17.960Z,99411.00
2023-02-19T01:27:51.055Z,99410.00
2023-02-19T01:29:24.109Z,99406.00
2023-02-19T01:30:57.191Z,99393.00
2023-02-19T01:32:30.317Z,99401.00
2023-02-19T01:34:05.248Z,99401.00
2023-02-19T01:35:39.879Z,99397.00
2023-02-19T01:37:13.039Z,99397.00
2023-02-19T01:38:47.101Z,99397.00
2023-02-19T01:40:21.688Z,99394.00
2023-02-19T01:41:54.968Z,99390.00
2023-02-19T01:43:29.118Z,99395.00
2023-02-19T01:45:29.847Z,99396.00
2023-02-19T01:47:02.953Z,99398.00
2023-02-19T01:48:40.181Z,99394.00
2023-02-19T01:50:13.474Z,99383.00
2023-02-19T01:51:55.997Z,99395.00
2023-02-19T01:53:36.060Z,99387.00
2023-02-19T01:55:13.797Z,99399.00
2023-02-19T01:56:50.538Z,99399.00
2023-02-19T01:58:27.039Z,99381.00
2023-02-19T02:00:06.672Z,99381.00
2023-02-19T02:01:47.013Z,99380.00
2023-02-19T02:03:20.828Z,99376.00
2023-02-19T02:04:55.152Z,99383.00
2023-02-19T02:06:35.238Z,99378.00
2023-02-19T02:08:26.615Z,99380.00
2023-02-19T02:10:17.986Z,99380.00
2023-02-19T02:11:54.346Z,99376.00
2023-02-19T02:13:28.739Z,99377.00
2023-02-19T02:15:04.860Z,99380.00
2023-02-19T02:16:48.438Z,99383.00
2023-02-19T02:18:41.808Z,99372.00
2023-02-19T02:20:42.863Z,99370.00
2023-02-19T02:22:21.723Z,99371.00
2023-02-19T02:24:34.171Z,99372.00
2023-02-19T02:26:26.243Z,99371.00
2023-02-19T02:28:23.235Z,99361.00
2023-02-19T02:30:31.014Z,99363.00
2023-02-19T02:32:09.666Z,99370.00
2023-02-19T02:33:50.059Z,99375.00
2023-02-19T02:35:29.142Z,99377.00
2023-02-19T02:37:05.254Z,99373.00
2023-02-19T02:38:43.170Z,99370.00
2023-02-19T02:40:17.309Z,99379.00
2023-02-19T02:42:10.269Z,99381.00
2023-02-19T02:43:44.304Z,99386.00
2023-02-19T02:45:35.639Z,99385.00
2023-02-19T02:47:35.540Z,99388.00
2023-02-19T02:49:18.503Z,99387.00
2023-02-19T02:50:58.763Z,99390.00
2023-02-19T02:52:56.174Z,99378.00
2023-02-19T02:54:52.024Z,99383.00
2023-02-19T02:56:28.558Z,99390.00
2023-02-19T02:58:01.955Z,99386.00
2023-02-19T02:59:39.791Z,99384.00
2023-02-19T03:01:40.388Z,99386.00
2023-02-19T03:03:18.925Z,99381.00
2023-02-19T03:05:21.646Z,99371.00
2023-02-19T03:06:59.124Z,99387.00
2023-02-19T03:08:38.409Z,99389.00
2023-02-19T03:10:18.778Z,99398.00
2023-02-19T03:12:14.103Z,99398.00
2023-02-19T03:14:09.058Z,99396.00
2023-02-19T03:16:14.008Z,99389.00
2023-02-19T03:18:15.164Z,99389.00
2023-02-19T03:19:59.642Z,99406.00
2023-02-19T03:21:38.197Z,99390.00
2023-02-19T03:23:17.156Z,99389.00
2023-02-19T03:25:15.843Z,99393.00
2023-02-19T03:26:53.799Z,99400.00
2023-02-19T03:28:47.174Z,99399.00
2023-02-19T03:30:26.482Z,99405.00
2023-02-19T03:32:07.968Z,99404.00
2023-02-19T03:33:45.650Z,99405.00
2023-02-19T03:35:24.042Z,99405.00
2023-02-19T03:37:06.752Z,99407.00
2023-02-19T03:38:45.473Z,99405.00
2023-02-19T03:40:19.627Z,99409.00
2023-02-19T03:42:02.490Z,99410.00
2023-02-19T03:43:43.319Z,99414.00
2023-02-19T03:45:31.769Z,99418.00
2023-02-19T03:47:19.459Z,99416.00
2023-02-19T03:49:02.546Z,99425.00
2023-02-19T03:50:46.653Z,99424.00
2023-02-19T03:52:29.358Z,99431.00
2023-02-19T03:54:14.296Z,99426.00
2023-02-19T03:56:00.386Z,99428.00
2023-02-19T03:57:50.454Z,99425.00
2023-02-19T03:59:34.509Z,99426.00
2023-02-19T04:01:14.592Z,99438.00
2023-02-19T04:02:55.199Z,99442.00
2023-02-19T04:04:34.950Z,99444.00
2023-02-19T04:06:15.389Z,99441.00
2023-02-19T04:07:53.088Z,99439.00
2023-02-19T04:09:37.864Z,99445.00
2023-02-19T04:11:17.725Z,99444.00
2023-02-19T04:12:58.820Z,99456.00
2023-02-19T04:14:39.448Z,99461.00
2023-02-19T04:16:16.499Z,99460.00
2023-02-19T04:17:56.653Z,99459.00
2023-02-19T04:19:35.674Z,99455.00
2023-02-19T04:21:10.065Z,99460.00
2023-02-19T04:22:44.419Z,99466.00
2023-02-19T04:24:24.552Z,99462.00
2023-02-19T04:26:00.638Z,99451.00
2023-02-19T04:27:37.173Z,99468.00
2023-02-19T04:29:10.456Z,99463.00
2023-02-19T04:30:44.171Z,99484.00
2023-02-19T04:32:17.404Z,99482.00
2023-02-19T04:33:50.552Z,99479.00
2023-02-19T04:35:24.990Z,99487.00
2023-02-19T04:36:58.356Z,99481.00
2023-02-19T04:38:31.472Z,99491.00
2023-02-19T04:40:05.024Z,99485.00
2023-02-19T04:41:37.175Z,99489.00
2023-02-19T04:43:10.613Z,99480.00
2023-02-19T04:44:43.758Z,99495.00
2023-02-19T04:46:16.298Z,99487.00
2023-02-19T04:47:49.547Z,99500.00
2023-02-19T04:49:22.674Z,99493.00
2023-02-19T04:50:56.696Z,99503.00
2023-02-19T04:52:29.814Z,99504.00
2023-02-19T04:54:03.043Z,99500.00
2023-02-19T04:55:39.070Z,99509.00
2023-02-19T04:57:12.243Z,99504.00
2023-02-19T04:58:46.649Z,99505.00
2023-02-19T05:00:19.907Z,99501.00
2023-02-19T05:01:53.190Z,99519.00
2023-02-19T05:03:27.301Z,99507.00
2023-02-19T05:05:00.592Z,99509.00
2023-02-19T05:06:35.245Z,99504.00
2023-02-19T05:08:08.389Z,99510.00
2023-02-19T05:09:41.521Z,99509.00
2023-02-19T05:11:15.075Z,99509.00
2023-02-19T05:12:48.129Z,99515.00
2023-02-19T05:14:21.247Z,99508.00
2023-02-19T05:15:58.913Z,99513.00
2023-02-19T05:17:34.585Z,99518.00
2023-02-19T05:19:07.788Z,99536.00
2023-02-19T05:20:39.968Z,99530.00
2023-02-19T05:22:14.412Z,99540.00
2023-02-19T05:23:47.681Z,99533.00
2023-02-19T05:25:20.919Z,99538.00
2023-02-19T05:26:53.991Z,99536.00
2023-02-19T05:28:28.831Z,99533.00
2023-02-19T05:30:01.927Z,99536.00
2023-02-19T05:31:35.377Z,99543.00
2023-02-19T05:33:07.586Z,99539.00
2023-02-19T05:34:40.699Z,99543.00
2023-02-19T05:36:15.053Z,99543.00
2023-02-19T05:37:49.424Z,99549.00
2023-02-19T05:39:22.628Z,99554.00
2023-02-19T05:40:55.789Z,99552.00
2023-02-19T05:42:29.036Z,99554.00
2023-02-19T05:44:02.150Z,99553.00
2023-02-19T05:45:39.001Z,99557.00
2023-02-19T05:47:12.293Z,99561.00
2023-02-19T05:48:45.545Z,99568.00
2023-02-19T05:50:19.109Z,99565.00
2023-02-19T05:51:52.349Z,99572.00
2023-02-19T05:53:26.794Z,99574.00
2023-02-19T05:54:59.896Z,99575.00
2023-02-19T05:56:35.694Z,99573.00
2023-02-19T05:58:07.900Z,99580.00
2023-02-19T05:59:41.115Z,99577.00
2023-02-19T06:01:17.081Z,99576.00
2023-02-19T06:02:50.204Z,99580.00
2023-02-19T06:04:23.679Z,99587.00
2023-02-19T06:05:56.701Z,99581.00
2023-02-19T06:07:29.962Z,99579.00
2023-02-19T06:09:04.800Z,99592.00
2023-02-19T06:10:41.136Z,99586.00
2023-02-19T06:12:15.107Z,99578.00
2023-02-19T06:13:49.997Z,99595.00
2023-02-19T06:15:22.115Z,99596.00
2023-02-19T06:16:55.202Z,99595.00
2023-02-19T06:18:28.381Z,99600.00
2023-02-19T06:20:02.135Z,99593.00
2023-02-19T06:21:35.825Z,99588.00
2023-02-19T06:23:07.979Z,99586.00
2023-02-19T06:24:42.789Z,99596.00
2023-02-19T06:26:20.313Z,99592.00
2023-02-19T06:27:53.578Z,99596.00
2023-02-19T06:29:27.192Z,99596.00
2023-02-19T06:31:00.125Z,99589.00
2023-02-19T06:32:33.366Z,99602.00
2023-02-19T06:34:09.562Z,99598.00
2023-02-19T06:35:42.895Z,99597.00
2023-02-19T06:37:16.036Z,99607.00
2023-02-19T06:38:48.607Z,99610.00
2023-02-19T06:40:23.198Z,99618.00
2023-02-19T06:41:56.892Z,99614.00
2023-02-19T06:43:30.379Z,99627.00
2023-02-19T06:45:03.453Z,99621.00
2023-02-19T06:46:37.014Z,99629.00
2023-02-19T06:48:10.242Z,99627.00
2023-02-19T06:49:43.708Z,99627.00
2023-02-19T06:51:22.551Z,99631.00
2023-02-19T06:52:55.631Z,99627.00
2023-02-19T06:54:28.985Z,99631.00
2023-02-19T06:56:07.901Z,99631.00
2023-02-19T06:57:40.945Z,99635.00
2023-02-19T06:59:17.664Z,99634.00
2023-02-19T07:00:50.811Z,99644.00
2023-02-19T07:02:24.112Z,99640.00
2023-02-19T07:03:57.469Z,99637.00
2023-02-19T07:05:30.572Z,99640.00
2023-02-19T07:07:03.784Z,99646.00
2023-02-19T07:08:35.906Z,99645.00
2023-02-19T07:10:09.245Z,99644.00
2023-02-19T07:11:43.796Z,99649.00
2023-02-19T07:13:16.910Z,99660.00
2023-02-19T07:14:50.247Z,99653.00
2023-02-19T07:16:23.935Z,99653.00
2023-02-19T07:17:57.092Z,99663.00
2023-02-19T07:19:30.133Z,99669.00
2023-02-19T07:21:04.908Z,99661.00
2023-02-19T07:22:37.996Z,99666.00
2023-02-19T07:24:11.838Z,99675.00
2023-02-19T07:25:45.045Z,99687.00
2023-02-19T07:27:19.649Z,99685.00
2023-02-19T07:28:53.414Z,99693.00
2023-02-19T07:30:26.651Z,99699.00
2023-02-19T07:31:59.802Z,99696.00
2023-02-19T07:33:32.918Z,99703.00
2023-02-19T07:35:07.142Z,99706.00
2023-02-19T07:36:40.211Z,99707.00
2023-02-19T07:38:12.341Z,99710.00
2023-02-19T07:39:45.436Z,99715.00
2023-02-19T07:41:18.551Z,99724.00
2023-02-19T07:42:53.143Z,99708.00
2023-02-19T07:44:26.533Z,99715.00
2023-02-19T07:45:59.098Z,99729.00
2023-02-19T07:47:32.496Z,99730.00
2023-02-19T07:49:07.057Z,99735.00
2023-02-19T07:50:40.253Z,99731.00
2023-02-19T07:52:13.526Z,99734.00
2023-02-19T07:53:47.414Z,99743.00
2023-02-19T07:55:20.432Z,99743.00
2023-02-19T07:56:53.488Z,99735.00
2023-02-19T07:58:28.016Z,99742.00
2023-02-19T08:00:01.169Z,99750.00
2023-02-19T08:01:52.218Z,99740.00
2023-02-19T08:03:25.895Z,99734.00
2023-02-19T08:04:58.108Z,99744.00
2023-02-19T08:06:31.262Z,99748.00
2023-02-19T08:08:07.064Z,99743.00
2023-02-19T08:09:40.153Z,99746.00
2023-02-19T08:11:30.651Z,99748.00
2023-02-19T08:13:19.244Z,99756.00
2023-02-19T08:14:53.649Z,99766.00
2023-02-19T08:16:42.061Z,99761.00
2023-02-19T08:18:17.715Z,99769.00
2023-02-19T08:19:50.787Z,99761.00
2023-02-19T08:21:24.594Z,99771.00
2023-02-19T08:22:57.753Z,99768.00
2023-02-19T08:24:31.079Z,99774.00
2023-02-19T08:26:04.933Z,99766.00
2023-02-19T08:27:37.300Z,99783.00
2023-02-19T08:29:10.568Z,99783.00
2023-02-19T08:30:48.346Z,99779.00
2023-02-19T08:32:21.404Z,99782.00
2023-02-19T08:33:54.679Z,99780.00
2023-02-19T08:35:28.638Z,99780.00
2023-02-19T08:37:01.998Z,99773.00
2023-02-19T08:38:37.658Z,99784.00
2023-02-19T08:40:12.015Z,99783.00
2023-02-19T08:41:45.442Z,99774.00
2023-02-19T08:43:19.255Z,99775.00
2023-02-19T08:44:52.507Z,99782.00
2023-02-19T08:46:27.153Z,99778.00
2023-02-19T08:48:01.400Z,99780.00
2023-02-19T08:49:34.828Z,99779.00
2023-02-19T08:51:12.316Z,99786.00
2023-02-19T08:52:45.749Z,99793.00
2023-02-19T08:54:18.900Z,99792.00
2023-02-19T08:55:52.547Z,99795.00
2023-02-19T08:57:26.461Z,99793.00
2023-02-19T08:58:59.551Z,99804.00
2023-02-19T09:00:32.911Z,99791.00
2023-02-19T09:02:07.400Z,99796.00
2023-02-19T09:03:40.880Z,99797.00
2023-02-19T09:05:14.284Z,99802.00
2023-02-19T09:06:47.489Z,99787.00
2023-02-19T09:08:20.681Z,99802.00
2023-02-19T09:09:54.355Z,99796.00
2023-02-19T09:11:27.584Z,99794.00
2023-02-19T09:12:59.796Z,99805.00
2023-02-19T09:14:34.328Z,99802.00
2023-02-19T09:16:08.800Z,99805.00
2023-02-19T09:17:43.221Z,99820.00
2023-02-19T09:19:16.308Z,99820.00
2023-02-19T09:20:49.331Z,99828.00
2023-02-19T09:22:22.708Z,99826.00
2023-02-19T09:23:55.805Z,99832.00
2023-02-19T09:25:28.975Z,99825.00
2023-02-19T09:27:02.663Z,99831.00
2023-02-19T09:28:38.039Z,99833.00
2023-02-19T09:30:11.999Z,99838.00
2023-02-19T09:31:45.884Z,99833.00
2023-02-19T09:33:20.572Z,99840.00
2023-02-19T09:34:53.820Z,99841.00
2023-02-19T09:36:26.955Z,99841.00
2023-02-19T09:38:01.850Z,99850.00
2023-02-19T09:39:36.497Z,99848.00
2023-02-19T09:41:19.633Z,99851.00
2023-02-19T09:42:53.111Z,99851.00
2023-02-19T09:44:33.163Z,99843.00
2023-02-19T09:46:23.404Z,99853.00
2023-02-19T09:47:58.813Z,99858.00
2023-02-19T09:49:38.327Z,99860.00
2023-02-19T09:51:14.691Z,99863.00
2023-02-19T09:52:55.071Z,99866.00
2023-02-19T09:54:32.958Z,99877.00
2023-02-19T09:56:08.342Z,99850.00
2023-02-19T09:57:42.454Z,99862.00
2023-02-19T09:59:21.928Z,99864.00
2023-02-19T10:00:58.641Z,99868.00
2023-02-19T10:02:32.649Z,99871.00
2023-02-19T10:04:06.545Z,99876.00
2023-02-19T10:05:42.843Z,99883.00
2023-02-19T10:07:19.172Z,99892.00
2023-02-19T10:08:55.982Z,99892.00
2023-02-19T10:10:33.224Z,99890.00
2023-02-19T10:12:16.943Z,99890.00
2023-02-19T10:13:55.120Z,99889.00
2023-02-19T10:15:35.424Z,99901.00
2023-02-19T10:17:18.876Z,99899.00
2023-02-19T10:18:52.484Z,99893.00
2023-02-19T10:20:28.121Z,99892.00
2023-02-19T10:22:05.511Z,99901.00
2023-02-19T10:23:40.773Z,99904.00
2023-02-19T10:25:17.626Z,99901.00
2023-02-19T10:26:51.564Z,99906.00
2023-02-19T10:28:30.307Z,99921.00
2023-02-19T10:30:03.613Z,99918.00
2023-02-19T10:31:36.811Z,99920.00
2023-02-19T10:33:13.489Z,99927.00
2023-02-19T10:34:46.571Z,99929.00
2023-02-19T10:36:31.946Z,99933.00
2023-02-19T10:38:08.250Z,99941.00
2023-02-19T10:39:45.871Z,99946.00
2023-02-19T10:41:22.345Z,99950.00
2023-02-19T10:42:59.784Z,99954.00
2023-02-19T10:44:44.953Z,99953.00
2023-02-19T10:46:32.437Z,99954.00
2023-02-19T10:48:07.513Z,99944.00
2023-02-19T10:49:44.161Z,99955.00
2023-02-19T10:51:21.528Z,99955.00
2023-02-19T10:52:58.025Z,99963.00
2023-02-19T10:54:35.415Z,99956.00
2023-02-19T10:56:12.518Z,99958.00
2023-02-19T10:57:46.770Z,99949.00
2023-02-19T10:59:27.349Z,99943.00
2023-02-19T11:01:20.412Z,99951.00
2023-02-19T11:03:18.527Z,99956.00
2023-02-19T11:05:17.915Z,99964.00
2023-02-19T11:06:51.318Z,99969.00
2023-02-19T11:08:25.644Z,99973.00
2023-02-19T11:10:01.182Z,99985.00
2023-02-19T11:11:38.207Z,99980.00
2023-02-19T11:13:19.570Z,99979.00
2023-02-19T11:14:52.994Z,99980.00
2023-02-19T11:16:42.007Z,99980.00
2023-02-19T11:18:28.529Z,99979.00
2023-02-19T11:20:08.266Z,99981.00
2023-02-19T11:21:41.335Z,99981.00
2023-02-19T11:23:19.320Z,99967.00
2023-02-19T11:24:57.264Z,99968.00
2023-02-19T11:26:38.045Z,99984.00
2023-02-19T11:28:32.556Z,99970.00
2023-02-19T11:30:37.325Z,99984.00
2023-02-19T11:32:30.497Z,99991.00
2023-02-19T11:34:29.728Z,99991.00
2023-02-19T11:36:30.059Z,99985.00
2023-02-19T11:38:13.873Z,99995.00
2023-02-19T11:39:50.999Z,99982.00
2023-02-19T11:41:48.492Z,99981.00
2023-02-19T11:43:48.281Z,99981.00
2023-02-19T11:45:38.191Z,99972.00
2023-02-19T11:47:46.351Z,99983.00
2023-02-19T11:49:40.204Z,99979.00
2023-02-19T11:51:41.293Z,99969.00
2023-02-19T11:53:25.781Z,99968.00
2023-02-19T11:55:16.024Z,99971.00
2023-02-19T11:57:02.095Z,99964.00
2023-02-19T11:59:02.538Z,99961.00
2023-02-19T12:00:49.260Z,99945.00
2023-02-19T12:02:54.100Z,99964.00
2023-02-19T12:05:00.629Z,99955.00
2023-02-19T12:06:45.014Z,99961.00
2023-02-19T12:09:02.792Z,99952.00
2023-02-19T12:10:52.497Z,99941.00
2023-02-19T12:12:48.250Z,99955.00
2023-02-19T12:14:56.763Z,99958.00
2023-02-19T12:16:39.823Z,99958.00
2023-02-19T12:18:42.732Z,99962.00
2023-02-19T12:20:32.004Z,99964.00
2023-02-19T12:22:28.532Z,99961.00
2023-02-19T12:24:30.014Z,99963.00
2023-02-19T12:26:13.587Z,99970.00
2023-02-19T12:28:09.734Z,99967.00
2023-02-19T12:30:12.874Z,99969.00
2023-02-19T12:32:15.168Z,99971.00
2023-02-19T12:34:37.286Z,99970.00
2023-02-19T12:36:23.139Z,99975.00
2023-02-19T12:38:10.251Z,99989.00
2023-02-19T12:39:53.733Z,99982.00
2023-02-19T12:41:44.366Z,99974.00
2023-02-19T12:43:22.439Z,99980.00
2023-02-19T12:45:01.960Z,99979.00
2023-02-19T12:46:40.483Z,99981.00
2023-02-19T12:48:25.212Z,99980.00
2023-02-19T12:50:07.141Z,99986.00
2023-02-19T12:51:48.146Z,99984.00
2023-02-19T12:53:38.645Z,99979.00
2023-02-19T12:55:23.313Z,99991.00
2023-02-19T12:57:03.957Z,100002.00
2023-02-19T12:58:44.916Z,99993.00
2023-02-19T13:00:32.313Z,99997.00
2023-02-19T13:02:20.263Z,99992.00
2023-02-19T13:04:07.878Z,100000.00
2023-02-19T13:05:48.341Z,100006.00
2023-02-19T13:07:26.966Z,100009.00
2023-02-19T13:09:07.459Z,100015.00
2023-02-19T13:10:44.992Z,100022.00
2023-02-19T13:12:25.039Z,100014.00
2023-02-19T13:14:07.937Z,100017.00
2023-02-19T13:15:48.556Z,100018.00
2023-02-19T13:17:29.683Z,100021.00
2023-02-19T13:19:05.165Z,100022.00
2023-02-19T13:20:42.363Z,100019.00
2023-02-19T13:22:43.543Z,100013.00
2023-02-19T13:24:23.209Z,100010.00
2023-02-19T13:26:15.717Z,100006.00
2023-02-19T13:28:20.252Z,100009.00
2023-02-19T13:30:13.733Z,100017.00
2023-02-19T13:32:16.933Z,100017.00
2023-02-19T13:34:06.111Z,100018.00
2023-02-19T13:36:10.002Z,100024.00
2023-02-19T13:37:44.264Z,100021.00
2023-02-19T13:39:21.840Z,100027.00
2023-02-19T13:40:57.666Z,100028.00
2023-02-19T13:42:34.923Z,100033.00
2023-02-19T13:44:19.153Z,100033.00
2023-02-19T13:46:00.411Z,100035.00
2023-02-19T13:47:59.341Z,100034.00
2023-02-19T13:49:43.152Z,100033.00
2023-02-19T13:51:49.404Z,100043.00
2023-02-19T13:53:57.146Z,100042.00
2023-02-19T13:55:53.180Z,100035.00
2023-02-19T13:57:30.261Z,100050.00
2023-02-19T13:59:25.862Z,100049.00
2023-02-19T14:01:01.946Z,100052.00
2023-02-19T14:02:36.072Z,100049.00
2023-02-19T14:04:18.509Z,100057.00
2023-02-19T14:06:01.759Z,100055.00
2023-02-19T14:08:01.945Z,100068.00
2023-02-19T14:09:49.000Z,100064.00
2023-02-19T14:12:04.282Z,100070.00
2023-02-19T14:13:59.115Z,100061.00
2023-02-19T14:15:44.883Z,100070.00
2023-02-19T14:17:29.795Z,100074.00
2023-02-19T14:19:02.965Z,100074.00
2023-02-19T14:20:46.053Z,100065.00
2023-02-19T14:23:20.058Z,100069.00
2023-02-19T14:24:54.288Z,100074.00
2023-02-19T14:26:30.919Z,100067.00
2023-02-19T14:28:33.563Z,100075.00
2023-02-19T14:30:11.822Z,100074.00
2023-02-19T14:31:47.816Z,100083.00
2023-02-19T14:33:25.700Z,100087.00
2023-02-19T14:34:59.045Z,100088.00
2023-02-19T14:36:45.304Z,100100.00
2023-02-19T14:38:26.264Z,100089.00
2023-02-19T14:40:00.240Z,100094.00
2023-02-19T14:41:39.025Z,100100.00
2023-02-19T14:43:17.528Z,100107.00
2023-02-19T14:44:57.065Z,100101.00
2023-02-19T14:46:35.717Z,100097.00
2023-02-19T14:48:20.773Z,100096.00
2023-02-19T14:50:01.643Z,100103.00
2023-02-19T14:51:40.640Z,100092.00
2023-02-19T14:53:18.813Z,100102.00
2023-02-19T14:54:57.550Z,100101.00
2023-02-19T14:56:36.076Z,100106.00
2023-02-19T14:58:16.039Z,100096.00
2023-02-19T14:59:59.073Z,100117.00
2023-02-19T15:01:32.511Z,100114.00
2023-02-19T15:03:07.589Z,100101.00
2023-02-19T15:04:41.048Z,100096.00
2023-02-19T15:06:20.263Z,100103.00
2023-02-19T15:07:56.356Z,100092.00
2023-02-19T15:09:37.985Z,100094.00
2023-02-19T15:11:18.345Z,100081.00
2023-02-19T15:12:55.471Z,100078.00
2023-02-19T15:14:30.856Z,100089.00
2023-02-19T15:16:04.496Z,100075.00
2023-02-19T15:17:41.964Z,100070.00
2023-02-19T15:19:17.977Z,100066.00
2023-02-19T15:20:53.561Z,100073.00
2023-02-19T15:22:31.842Z,100066.00
2023-02-19T15:24:07.907Z,100056.00
2023-02-19T15:25:41.115Z,100068.00
2023-02-19T15:27:20.665Z,100059.00
2023-02-19T15:29:02.920Z,100060.00
2023-02-19T15:30:36.508Z,100051.00
2023-02-19T15:32:19.902Z,100052.00
2023-02-19T15:33:55.714Z,100060.00
2023-02-19T15:35:33.351Z,100053.00
2023-02-19T15:37:10.108Z,100049.00
2023-02-19T15:38:45.512Z,100040.00
2023-02-19T15:40:24.604Z,100049.00
2023-02-19T15:42:01.588Z,100036.00
2023-02-19T15:43:44.818Z,100030.00
2023-02-19T15:45:23.964Z,100038.00
2023-02-19T15:47:00.007Z,100027.00
2023-02-19T15:48:41.103Z,100034.00
2023-02-19T15:50:18.322Z,100033.00
2023-02-19T15:51:58.996Z,100042.00
2023-02-19T15:53:38.139Z,100051.00
2023-02-19T15:55:34.367Z,100029.00
2023-02-19T15:57:17.136Z,100041.00
2023-02-19T15:58:54.496Z,100039.00
2023-02-19T16:00:36.437Z,100050.00
2023-02-19T16:02:18.425Z,100042.00
2023-02-19T16:03:53.886Z,100050.00
2023-02-19T16:05:29.489Z,100052.00
2023-02-19T16:07:04.249Z,100044.00
2023-02-19T16:08:39.692Z,100049.00
2023-02-19T16:10:25.782Z,100044.00
2023-02-19T16:12:01.496Z,100045.00
2023-02-19T16:13:36.338Z,100046.00
2023-02-19T16:15:21.175Z,100046.00
2023-02-19T16:16:59.022Z,100055.00
2023-02-19T16:18:32.485Z,100049.00
2023-02-19T16:20:06.376Z,100051.00
2023-02-19T16:21:42.177Z,100049.00
2023-02-19T16:23:21.946Z,100053.00
2023-02-19T16:24:59.340Z,100065.00
2023-02-19T16:26:41.343Z,100075.00
2023-02-19T16:28:21.991Z,100068.00
2023-02-19T16:29:55.795Z,100064.00
2023-02-19T16:31:29.882Z,100077.00
2023-02-19T16:33:42.197Z,100074.00
2023-02-19T16:35:37.147Z,100084.00
2023-02-19T16:37:37.250Z,100074.00
2023-02-19T16:39:30.128Z,100081.00
2023-02-19T16:41:13.797Z,100080.00
2023-02-19T16:43:39.146Z,100098.00
2023-02-19T16:45:12.618Z,100091.00
2023-02-19T16:46:45.779Z,100091.00
2023-02-19T16:48:22.175Z,100096.00
2023-02-19T16:49:56.448Z,100100.00
2023-02-19T16:51:29.830Z,100099.00
2023-02-19T16:53:05.138Z,100095.00
2023-02-19T16:54:38.403Z,100098.00
2023-02-19T16:56:18.555Z,100096.00
2023-02-19T16:57:52.647Z,100102.00
2023-02-19T16:59:27.353Z,100114.00
2023-02-19T17:01:01.693Z,100106.00
2023-02-19T17:02:34.884Z,100108.00
2023-02-19T17:04:12.537Z,100111.00
2023-02-19T17:05:46.538Z,100120.00
2023-02-19T17:07:20.162Z,100107.00
2023-02-19T17:08:55.408Z,100115.00
2023-02-19T17:10:31.980Z,100124.00
2023-02-19T17:12:10.512Z,100130.00
2023-02-19T17:13:46.238Z,100134.00
2023-02-19T17:15:21.467Z,100119.00
2023-02-19T17:16:55.304Z,100139.00
2023-02-19T17:18:29.365Z,100148.00
2023-02-19T17:20:02.709Z,100139.00
2023-02-19T17:21:36.088Z,100154.00
2023-02-19T17:23:10.837Z,100155.00
2023-02-19T17:24:47.388Z,100145.00
2023-02-19T17:26:23.715Z,100170.00
2023-02-19T17:27:57.115Z,100155.00
2023-02-19T17:29:33.815Z,100144.00
2023-02-19T17:31:09.718Z,100150.00
2023-02-19T17:32:43.164Z,100162.00
2023-02-19T17:34:19.251Z,100154.00
2023-02-19T17:35:52.775Z,100155.00
2023-02-19T17:37:26.184Z,100152.00
2023-02-19T17:39:00.564Z,100178.00
2023-02-19T17:40:34.099Z,100170.00
2023-02-19T17:42:07.605Z,100172.00
2023-02-19T17:43:40.843Z,100167.00
2023-02-19T17:45:14.563Z,100181.00
2023-02-19T17:46:49.420Z,100169.00
2023-02-19T17:48:22.690Z,100183.00
2023-02-19T17:49:56.610Z,100167.00
2023-02-19T17:51:29.907Z,100172.00
2023-02-19T17:53:03.246Z,100184.00
2023-02-19T17:54:36.475Z,100174.00
2023-02-19T17:56:10.262Z,100183.00
2023-02-19T17:57:43.441Z,100188.00
2023-02-19T17:59:18.278Z,100183.00
2023-02-19T18:00:51.785Z,100171.00
2023-02-19T18:02:26.528Z,100182.00
2023-02-19T18:04:00.024Z,100195.00
2023-02-19T18:05:33.141Z,100184.00
2023-02-19T18:07:06.566Z,100200.00
2023-02-19T18:08:40.007Z,100192.00
2023-02-19T18:10:14.447Z,100190.00
2023-02-19T18:11:48.242Z,100195.00
2023-02-19T18:13:24.861Z,100211.00
2023-02-19T18:14:58.162Z,100173.00
2023-02-19T18:16:31.503Z,100199.00
2023-02-19T18:18:06.634Z,100193.00
2023-02-19T18:19:40.162Z,100185.00
2023-02-19T18:21:14.500Z,100192.00
2023-02-19T18:22:50.739Z,100173.00
2023-02-19T18:24:24.084Z,100197.00
2023-02-19T18:25:57.314Z,100198.00
2023-02-19T18:27:33.100Z,100194.00
2023-02-19T18:29:08.354Z,100201.00
2023-02-19T18:30:41.723Z,100209.00
2023-02-19T18:32:15.073Z,100209.00
2023-02-19T18:33:49.862Z,100205.00
2023-02-19T18:35:23.214Z,100205.00
2023-02-19T18:36:58.261Z,100202.00
2023-02-19T18:38:31.477Z,100217.00
2023-02-19T18:40:06.916Z,100220.00
2023-02-19T18:41:47.914Z,100231.00
2023-02-19T18:43:20.970Z,100227.00
2023-02-19T18:44:55.179Z,100220.00
2023-02-19T18:46:28.472Z,100228.00
2023-02-19T18:48:05.651Z,100226.00
2023-02-19T18:49:40.323Z,100229.00
2023-02-19T18:51:14.813Z,100223.00
2023-02-19T18:52:48.599Z,100221.00
2023-02-19T18:54:24.214Z,100233.00
2023-02-19T18:55:58.969Z,100231.00
2023-02-19T18:57:35.755Z,100230.00
2023-02-19T18:59:09.196Z,100224.00
2023-02-19T19:00:42.316Z,100238.00
2023-02-19T19:02:16.099Z,100240.00
2023-02-19T19:03:51.660Z,100247.00
2023-02-19T19:05:26.848Z,100245.00
2023-02-19T19:07:00.049Z,100247.00
2023-02-19T19:08:33.122Z,100248.00